Permanente, California
Current Conditions -  °F | °C
As of 11:56 PM on Wednesday 26 Nov 2014 (Local Time) from KNUQ Reporting Station
Clear Clear  
Wind Chill: 50°   Ceiling: Unl
Heat Index: 50°   Visibility: 10mi
Dew Point: 46°   Wind: 0mph
Humidity: 86%   Direction: NA
Pressure: 30.22"   Gusts: NA
Location:  37.305°N, 122.094°W
Report Text: KNUQ 270756Z AUTO 00000KT 10SM CLR 10/08 A3022 RMK AO2 SLP235 T01000078 402110061 TSNO
Loading
Personal Weather Stations






























Interactive Weather Map New forecast layout! Learn more

10-Day Weather Forecast

Advertisements
Track Severe Weather on mobile